Time;durP1;ratioP1;P1;durP2;ratioP2;P2;SDS_P1;SDS_P2;PMS_P1;PMS_P2;Temp;Humidity;BMP_temperature;BMP_pressure;BME280_temperature;BME280_humidity;BME280_pressure;Samples;Min_cycle;Max_cycle;Signal;HPM_P1;HPM_P2
2022/06/09 00:01:02;;;;;;;18.27;17.27;;;15.80;91.10;;;;;;4964003;28;20578;-69
2022/06/09 00:03:34;;;;;;;18.53;17.53;;;15.80;91.00;;;;;;4972249;28;20471;-68
2022/06/09 00:06:01;;;;;;;18.20;17.30;;;15.80;90.80;;;;;;4976807;28;20562;-69
2022/06/09 00:08:31;;;;;;;18.30;17.37;;;15.90;90.60;;;;;;4972862;28;20553;-69
2022/06/09 00:11:01;;;;;;;18.13;17.23;;;15.90;90.20;;;;;;4963915;28;20464;-69
2022/06/09 00:13:29;;;;;;;18.27;17.40;;;15.80;90.70;;;;;;4971440;28;20916;-69
2022/06/09 00:15:56;;;;;;;19.13;18.23;;;15.80;91.00;;;;;;4970837;28;21066;-69
2022/06/09 00:18:23;;;;;;;19.27;18.20;;;15.80;91.00;;;;;;4978386;28;21045;-69
2022/06/09 00:20:50;;;;;;;18.83;17.73;;;15.80;91.10;;;;;;4972149;28;20474;-69
2022/06/09 00:23:18;;;;;;;18.03;17.13;;;15.80;91.00;;;;;;4984745;28;20459;-69
2022/06/09 00:25:47;;;;;;;19.00;17.70;;;15.90;90.80;;;;;;4978514;28;20481;-69
2022/06/09 00:28:14;;;;;;;18.30;17.30;;;15.90;90.80;;;;;;4975408;28;20564;-68
2022/06/09 00:30:42;;;;;;;18.10;17.20;;;15.90;90.80;;;;;;4976290;28;20539;-69
2022/06/09 00:33:09;;;;;;;19.30;18.33;;;16.00;90.00;;;;;;4970508;28;20487;-71
2022/06/09 00:35:36;;;;;;;18.77;17.80;;;15.90;90.30;;;;;;4970313;28;21023;-71
2022/06/09 00:38:03;;;;;;;18.80;17.90;;;16.00;89.90;;;;;;4960402;28;20555;-71
2022/06/09 00:40:30;;;;;;;18.30;17.50;;;16.00;89.80;;;;;;4963568;28;20559;-71
2022/06/09 00:42:59;;;;;;;18.80;17.90;;;16.00;89.70;;;;;;4953824;28;20470;-71
2022/06/09 00:45:29;;;;;;;18.40;17.50;;;15.90;90.10;;;;;;4969381;28;20510;-71
2022/06/09 00:48:09;;;;;;;18.90;17.90;;;15.90;90.40;;;;;;4978298;28;20550;-72
2022/06/09 00:50:40;;;;;;;18.70;17.70;;;15.90;90.40;;;;;;4966092;28;20554;-71
2022/06/09 00:53:13;;;;;;;18.67;17.67;;;15.90;90.30;;;;;;4970909;28;20549;-73
2022/06/09 00:55:42;;;;;;;18.77;17.77;;;15.90;90.30;;;;;;4973888;28;20566;-72
2022/06/09 00:58:15;;;;;;;18.23;17.43;;;15.90;90.70;;;;;;4965096;28;20569;-71
2022/06/09 01:00:47;;;;;;;18.50;17.60;;;15.90;90.90;;;;;;4964839;28;20468;-71
2022/06/09 01:03:16;;;;;;;18.33;17.40;;;15.90;90.80;;;;;;4971057;28;20580;-71
2022/06/09 01:05:45;;;;;;;18.60;17.70;;;16.00;90.20;;;;;;4969791;28;20609;-71
2022/06/09 01:08:14;;;;;;;18.30;17.40;;;16.00;90.10;;;;;;4961808;28;20459;-71
2022/06/09 01:10:42;;;;;;;18.50;17.60;;;16.00;89.90;;;;;;4966687;28;20554;-71
2022/06/09 01:13:10;;;;;;;18.60;17.70;;;16.00;89.60;;;;;;4963777;28;20493;-71
2022/06/09 01:15:48;;;;;;;18.37;17.47;;;16.00;89.30;;;;;;4974722;28;20540;-71
2022/06/09 01:18:26;;;;;;;18.53;17.73;;;15.90;89.30;;;;;;4974447;28;21034;-71
2022/06/09 01:21:02;;;;;;;17.87;17.07;;;15.90;89.60;;;;;;4963653;28;20566;-71
2022/06/09 01:24:06;;;;;;;17.87;17.07;;;15.90;89.00;;;;;;4960332;28;20636;-69
2022/06/09 01:26:56;;;;;;;17.80;17.00;;;15.90;89.30;;;;;;4951168;28;20475;-69
2022/06/09 01:29:38;;;;;;;18.00;17.10;;;15.80;89.30;;;;;;4956232;28;20554;-69
2022/06/09 01:32:12;;;;;;;19.03;18.13;;;15.80;89.20;;;;;;4969141;28;20572;-69
2022/06/09 01:34:53;;;;;;;18.70;17.80;;;15.80;89.10;;;;;;4965729;28;20462;-69
2022/06/09 01:37:26;;;;;;;18.97;18.07;;;15.80;89.20;;;;;;4965498;28;21323;-69
2022/06/09 01:39:55;;;;;;;18.73;17.83;;;15.80;89.60;;;;;;4978443;28;20466;-69
2022/06/09 01:42:30;;;;;;;18.67;17.77;;;15.80;89.30;;;;;;4959327;28;20570;-69
2022/06/09 01:45:01;;;;;;;19.17;17.80;;;15.80;89.20;;;;;;4965457;28;20458;-70
2022/06/09 01:47:37;;;;;;;18.50;17.50;;;15.80;89.40;;;;;;4972619;28;20503;-71
2022/06/09 01:50:07;;;;;;;18.03;17.23;;;15.80;89.10;;;;;;4972590;28;20467;-71
2022/06/09 01:52:35;;;;;;;18.20;17.10;;;15.80;89.50;;;;;;4963446;28;20562;-71
2022/06/09 01:55:04;;;;;;;17.30;16.50;;;15.80;89.30;;;;;;4966896;28;20470;-72
2022/06/09 01:57:37;;;;;;;17.50;16.70;;;15.70;90.00;;;;;;4962258;28;20891;-71
2022/06/09 02:00:09;;;;;;;17.60;16.70;;;15.60;90.20;;;;;;4967678;28;21143;-72
2022/06/09 02:02:40;;;;;;;17.40;16.60;;;15.60;90.40;;;;;;4958756;28;20550;-71
2022/06/09 02:05:11;;;;;;;17.97;17.07;;;15.50;90.80;;;;;;4967941;28;20548;-69
2022/06/09 02:07:41;;;;;;;17.77;16.97;;;15.60;90.80;;;;;;4974470;28;20540;-69
2022/06/09 02:10:21;;;;;;;17.57;16.70;;;15.50;91.00;;;;;;4966354;28;20563;-68
2022/06/09 02:12:50;;;;;;;18.73;17.63;;;15.50;90.90;;;;;;4968305;28;20957;-69
2022/06/09 02:15:27;;;;;;;18.10;17.10;;;15.50;90.90;;;;;;4967347;28;20558;-69
2022/06/09 02:17:55;;;;;;;18.53;17.50;;;15.40;91.00;;;;;;4972564;28;20548;-69
2022/06/09 02:20:24;;;;;;;18.90;18.00;;;15.40;90.90;;;;;;4973312;28;20996;-69
2022/06/09 02:22:51;;;;;;;18.43;17.43;;;15.50;90.60;;;;;;4955924;28;20467;-69
2022/06/09 02:25:20;;;;;;;19.53;18.37;;;15.40;90.60;;;;;;4972153;28;20463;-69
2022/06/09 02:27:47;;;;;;;18.33;17.43;;;15.40;91.10;;;;;;4970078;28;21064;-69
2022/06/09 02:30:14;;;;;;;19.00;18.00;;;15.40;90.80;;;;;;4971815;28;20483;-69
2022/06/09 02:32:41;;;;;;;18.83;17.73;;;15.50;90.50;;;;;;4970712;28;20482;-69
2022/06/09 02:35:10;;;;;;;18.30;17.40;;;15.50;90.40;;;;;;4970036;28;20459;-69
2022/06/09 02:37:37;;;;;;;19.43;18.00;;;15.50;90.40;;;;;;4970467;28;21045;-69
2022/06/09 02:40:05;;;;;;;19.30;18.13;;;15.40;90.10;;;;;;4973275;28;20502;-69
2022/06/09 02:42:32;;;;;;;18.67;17.60;;;15.30;91.00;;;;;;4964440;28;20553;-69
2022/06/09 02:44:59;;;;;;;18.90;17.80;;;15.40;90.70;;;;;;4969102;28;20537;-69
2022/06/09 02:47:26;;;;;;;19.07;18.17;;;15.30;90.50;;;;;;4970824;28;20570;-68
2022/06/09 02:49:53;;;;;;;19.70;18.60;;;15.40;90.70;;;;;;4972106;28;20459;-69
2022/06/09 02:52:21;;;;;;;19.07;18.07;;;15.30;90.80;;;;;;4968196;28;20574;-68
2022/06/09 02:54:48;;;;;;;18.70;17.80;;;15.30;91.00;;;;;;4970252;28;20455;-69
2022/06/09 02:57:15;;;;;;;19.20;18.20;;;15.20;90.80;;;;;;4972190;28;20507;-69
2022/06/09 02:59:42;;;;;;;19.83;18.57;;;15.20;90.90;;;;;;4970924;28;20463;-69
2022/06/09 03:02:09;;;;;;;18.50;17.50;;;15.20;90.90;;;;;;4966926;28;20558;-69
2022/06/09 03:04:36;;;;;;;18.03;17.10;;;15.20;90.50;;;;;;4981017;28;20529;-69
2022/06/09 03:07:03;;;;;;;18.83;17.70;;;15.20;90.50;;;;;;4972009;28;20493;-68
2022/06/09 03:09:32;;;;;;;19.63;18.63;;;15.20;90.80;;;;;;4981169;28;20541;-69
2022/06/09 03:11:58;;;;;;;19.50;18.50;;;15.20;91.00;;;;;;4976014;28;20578;-69
2022/06/09 03:14:25;;;;;;;20.40;19.43;;;15.20;90.60;;;;;;4956963;28;20538;-69
2022/06/09 03:16:52;;;;;;;20.37;19.27;;;15.10;90.60;;;;;;4974809;28;20569;-68
2022/06/09 03:19:19;;;;;;;21.30;20.20;;;15.10;90.90;;;;;;4974912;28;21041;-68
2022/06/09 03:21:47;;;;;;;20.60;19.40;;;15.10;91.00;;;;;;4974610;28;20602;-69
2022/06/09 03:24:14;;;;;;;20.37;19.27;;;15.10;90.90;;;;;;4957466;28;20460;-69
2022/06/09 03:26:43;;;;;;;20.50;19.50;;;15.10;91.10;;;;;;4970398;28;20519;-68
2022/06/09 03:29:10;;;;;;;18.87;17.97;;;15.10;90.90;;;;;;4978351;28;20837;-69
2022/06/09 03:31:37;;;;;;;20.73;19.43;;;15.10;90.90;;;;;;4971123;28;20543;-69
2022/06/09 03:34:04;;;;;;;20.00;18.90;;;15.20;90.70;;;;;;4960198;28;20477;-70
2022/06/09 03:36:32;;;;;;;20.90;19.80;;;15.10;90.60;;;;;;4966314;28;20492;-70
2022/06/09 03:38:59;;;;;;;19.60;18.50;;;15.20;90.30;;;;;;4979373;28;20462;-70
2022/06/09 03:41:26;;;;;;;18.80;17.90;;;15.20;90.50;;;;;;4972751;28;20560;-73
2022/06/09 03:43:54;;;;;;;21.70;20.60;;;15.30;90.30;;;;;;4962067;28;20834;-70
2022/06/09 03:46:21;;;;;;;19.60;18.40;;;15.30;90.20;;;;;;4970322;28;20471;-71
2022/06/09 03:48:48;;;;;;;18.13;17.23;;;15.30;90.00;;;;;;4978450;28;20980;-70
2022/06/09 03:51:15;;;;;;;19.23;18.33;;;15.30;90.20;;;;;;4962360;28;20485;-69
2022/06/09 03:53:42;;;;;;;18.90;18.00;;;15.30;90.10;;;;;;4970846;28;20465;-71
2022/06/09 03:56:14;;;;;;;18.73;17.63;;;15.40;89.90;;;;;;4968749;28;20898;-70
2022/06/09 03:58:41;;;;;;;19.00;17.90;;;15.30;89.90;;;;;;4977554;28;20549;-70
2022/06/09 04:01:13;;;;;;;20.37;19.17;;;15.40;89.70;;;;;;4976272;28;20478;-71
2022/06/09 04:03:40;;;;;;;19.33;18.33;;;15.40;89.50;;;;;;4959941;28;20470;-70
2022/06/09 04:06:07;;;;;;;19.13;18.03;;;15.30;89.70;;;;;;4970549;28;20559;-70
2022/06/09 04:08:34;;;;;;;18.27;17.27;;;15.40;89.60;;;;;;4977327;28;20455;-71
2022/06/09 04:11:01;;;;;;;18.90;17.80;;;15.40;89.40;;;;;;4963925;28;20455;-70
2022/06/09 04:13:28;;;;;;;18.90;17.90;;;15.30;89.50;;;;;;4963027;28;20503;-71
2022/06/09 04:15:55;;;;;;;19.53;18.33;;;15.30;89.70;;;;;;4970103;28;20581;-70
2022/06/09 04:18:23;;;;;;;19.63;18.60;;;15.30;89.70;;;;;;4963777;28;20635;-70
2022/06/09 04:20:50;;;;;;;18.93;17.93;;;15.30;90.20;;;;;;4970870;28;20569;-71
2022/06/09 04:23:17;;;;;;;19.73;18.53;;;15.30;89.80;;;;;;4964925;28;20586;-70
2022/06/09 04:25:44;;;;;;;20.87;19.87;;;15.30;89.60;;;;;;4961601;28;20491;-71
2022/06/09 04:28:11;;;;;;;21.40;20.30;;;15.40;89.40;;;;;;4976701;28;20922;-73
2022/06/09 04:30:38;;;;;;;20.47;19.37;;;15.40;89.30;;;;;;4969399;28;20545;-69
2022/06/09 04:33:05;;;;;;;20.60;19.50;;;15.50;89.20;;;;;;4970758;28;20459;-69
2022/06/09 04:35:34;;;;;;;20.40;19.20;;;15.50;88.90;;;;;;4969646;28;20530;-69
2022/06/09 04:38:00;;;;;;;20.00;18.90;;;15.50;89.00;;;;;;4971453;28;20514;-69
2022/06/09 04:40:29;;;;;;;21.20;20.10;;;15.50;88.80;;;;;;4963676;28;20458;-69
2022/06/09 04:42:56;;;;;;;20.20;19.00;;;15.50;89.10;;;;;;4973257;28;20549;-69
2022/06/09 04:45:23;;;;;;;19.90;18.90;;;15.50;89.20;;;;;;4974219;28;20459;-69
2022/06/09 04:47:50;;;;;;;22.23;21.00;;;15.50;89.00;;;;;;4972001;28;20550;-69
2022/06/09 04:50:18;;;;;;;21.53;20.23;;;15.50;88.90;;;;;;4967606;28;20550;-70
2022/06/09 04:52:47;;;;;;;21.37;19.73;;;15.50;88.90;;;;;;4969916;28;20467;-70
2022/06/09 04:55:15;;;;;;;20.43;19.30;;;15.50;88.60;;;;;;4967809;28;20495;-72
2022/06/09 04:57:41;;;;;;;20.33;19.03;;;15.50;88.00;;;;;;4972978;28;20561;-71
2022/06/09 05:00:12;;;;;;;20.20;18.90;;;15.60;88.10;;;;;;4971299;28;20986;-75
2022/06/09 05:02:39;;;;;;;23.70;22.20;;;15.60;87.80;;;;;;4971756;28;20483;-74
2022/06/09 05:05:07;;;;;;;23.17;21.87;;;15.70;87.60;;;;;;4963680;28;20460;-75
2022/06/09 05:07:34;;;;;;;23.70;22.40;;;15.70;86.70;;;;;;4969058;28;20601;-68
2022/06/09 05:10:02;;;;;;;21.40;20.20;;;15.70;86.90;;;;;;4970476;28;20559;-68
2022/06/09 05:12:30;;;;;;;21.40;20.30;;;15.80;86.10;;;;;;4969064;28;20883;-70
2022/06/09 05:14:57;;;;;;;21.70;20.50;;;15.70;86.10;;;;;;4966224;28;21095;-73
2022/06/09 05:17:24;;;;;;;22.93;21.53;;;15.80;86.10;;;;;;4979690;28;20569;-74
2022/06/09 05:19:51;;;;;;;22.57;21.10;;;15.90;85.40;;;;;;4961856;28;20560;-73
2022/06/09 05:22:18;;;;;;;21.50;20.30;;;16.00;85.20;;;;;;4972625;28;21128;-72
2022/06/09 05:24:45;;;;;;;21.67;20.33;;;16.10;85.00;;;;;;4964388;28;20507;-71
2022/06/09 05:27:14;;;;;;;22.50;21.30;;;16.10;84.50;;;;;;4961150;28;20561;-71
2022/06/09 05:29:41;;;;;;;20.90;19.70;;;16.10;84.20;;;;;;4973829;28;20482;-70
2022/06/09 05:32:09;;;;;;;23.30;22.00;;;16.10;84.50;;;;;;4968077;28;20196;-69
2022/06/09 05:34:36;;;;;;;23.87;22.57;;;16.20;84.20;;;;;;4967328;28;20466;-68
2022/06/09 05:37:03;;;;;;;23.13;21.90;;;16.40;83.80;;;;;;4969085;28;20565;-68
2022/06/09 05:45:03;;;;;;;25.07;23.57;;;16.60;82.40;;;;;;4967141;28;20541;-71
2022/06/09 05:47:30;;;;;;;26.03;24.53;;;16.60;81.70;;;;;;4963271;28;20566;-69
2022/06/09 05:49:57;;;;;;;24.50;23.20;;;16.60;81.00;;;;;;4971382;28;20988;-68
2022/06/09 05:52:27;;;;;;;23.87;22.27;;;16.70;80.90;;;;;;4977421;28;20462;-68
2022/06/09 05:54:55;;;;;;;24.90;23.47;;;16.80;80.70;;;;;;4972707;28;20498;-68
2022/06/09 05:57:25;;;;;;;24.30;22.90;;;16.80;80.20;;;;;;4958353;28;20915;-68
2022/06/09 05:59:53;;;;;;;25.60;23.87;;;16.90;80.40;;;;;;4958382;28;20550;-68
2022/06/09 06:02:22;;;;;;;24.00;22.70;;;17.10;79.40;;;;;;4970123;28;20509;-71
2022/06/09 06:04:50;;;;;;;24.17;22.87;;;17.20;79.20;;;;;;4967350;28;21215;-71
2022/06/09 06:07:17;;;;;;;24.50;22.90;;;17.30;78.60;;;;;;4960013;28;20479;-70
2022/06/09 06:09:44;;;;;;;25.20;23.80;;;17.20;78.30;;;;;;4964538;28;20546;-68
2022/06/09 06:12:14;;;;;;;25.17;23.53;;;17.10;78.60;;;;;;4970839;28;20454;-68
2022/06/09 06:14:43;;;;;;;24.10;22.60;;;17.20;79.10;;;;;;4961030;28;20571;-69
2022/06/09 06:17:10;;;;;;;27.00;25.30;;;17.30;78.20;;;;;;4967937;28;20489;-69
2022/06/09 06:19:38;;;;;;;26.90;25.23;;;17.40;77.20;;;;;;4961158;28;20597;-68
2022/06/09 06:22:05;;;;;;;25.60;24.07;;;17.40;76.20;;;;;;4968132;28;20494;-67
2022/06/09 06:24:32;;;;;;;25.90;24.33;;;17.30;77.80;;;;;;4965660;28;20483;-70
2022/06/09 06:26:59;;;;;;;25.30;23.90;;;17.30;77.80;;;;;;4962969;28;21004;-70
2022/06/09 06:29:27;;;;;;;25.47;23.97;;;17.50;77.70;;;;;;4963651;28;20571;-68
2022/06/09 06:31:56;;;;;;;24.83;23.10;;;17.70;77.10;;;;;;4971563;28;20514;-68
2022/06/09 06:34:23;;;;;;;26.40;24.43;;;17.80;76.40;;;;;;4968363;28;20526;-67
2022/06/09 06:36:50;;;;;;;27.33;25.40;;;17.80;75.10;;;;;;4964982;28;20998;-70
2022/06/09 06:39:17;;;;;;;27.30;25.70;;;17.60;77.00;;;;;;4965480;28;20553;-70
2022/06/09 06:41:45;;;;;;;24.57;23.07;;;17.90;76.60;;;;;;4969555;28;21060;-70
2022/06/09 06:44:12;;;;;;;27.03;25.10;;;18.00;75.60;;;;;;4962937;28;20580;-71
2022/06/09 06:46:39;;;;;;;25.73;24.13;;;18.20;74.50;;;;;;4956587;28;20482;-69
2022/06/09 06:49:08;;;;;;;25.90;24.20;;;18.30;74.30;;;;;;4962107;28;20464;-70
2022/06/09 06:51:35;;;;;;;25.13;23.27;;;18.20;72.40;;;;;;4967477;28;21066;-68
2022/06/09 06:54:04;;;;;;;25.03;23.43;;;18.20;73.10;;;;;;4962255;28;20599;-68
2022/06/09 06:56:35;;;;;;;26.50;24.70;;;18.10;73.30;;;;;;4962382;28;20478;-68
2022/06/09 06:59:03;;;;;;;25.97;24.40;;;18.20;73.70;;;;;;4963703;28;21060;-69
2022/06/09 07:01:30;;;;;;;27.07;25.50;;;18.40;72.60;;;;;;4962042;28;20586;-67
2022/06/09 07:03:58;;;;;;;29.57;27.97;;;18.30;72.70;;;;;;4967149;28;20948;-72
2022/06/09 07:06:26;;;;;;;26.67;24.77;;;18.40;71.60;;;;;;4965352;28;20568;-69
2022/06/09 07:08:53;;;;;;;27.67;25.87;;;18.30;70.60;;;;;;4963484;28;20465;-70
2022/06/09 07:11:21;;;;;;;25.93;24.33;;;18.40;69.70;;;;;;4968580;28;20487;-71
2022/06/09 07:13:49;;;;;;;27.73;26.03;;;18.50;69.80;;;;;;4966060;28;20459;-69
2022/06/09 07:16:19;;;;;;;26.77;24.97;;;18.60;70.40;;;;;;4961059;28;20526;-68
2022/06/09 07:18:46;;;;;;;27.70;25.80;;;18.60;69.60;;;;;;4972025;28;21009;-67
2022/06/09 07:21:14;;;;;;;26.30;24.70;;;18.60;69.60;;;;;;4960946;28;20459;-67
2022/06/09 07:23:43;;;;;;;26.60;25.00;;;18.50;70.10;;;;;;4969152;28;20598;-67
2022/06/09 07:26:10;;;;;;;27.17;25.47;;;18.60;70.80;;;;;;4971846;28;20541;-67
2022/06/09 07:28:37;;;;;;;27.07;25.17;;;18.60;69.70;;;;;;4970241;28;20494;-67
2022/06/09 07:31:06;;;;;;;28.37;26.43;;;18.40;69.10;;;;;;4969980;28;21041;-67
2022/06/09 07:33:36;;;;;;;26.97;25.37;;;18.30;70.00;;;;;;4970507;28;21140;-69
2022/06/09 07:36:05;;;;;;;27.10;25.47;;;18.30;69.40;;;;;;4971777;28;21341;-69
2022/06/09 07:38:33;;;;;;;26.67;24.87;;;18.40;69.20;;;;;;4966590;28;20463;-70
2022/06/09 07:41:01;;;;;;;27.43;25.50;;;18.10;67.20;;;;;;4963154;28;21016;-68
2022/06/09 07:43:28;;;;;;;28.13;26.13;;;18.00;69.30;;;;;;4970976;28;20560;-68
2022/06/09 07:45:55;;;;;;;25.40;23.87;;;17.90;69.20;;;;;;4962656;28;20567;-70
2022/06/09 07:48:22;;;;;;;27.37;25.63;;;17.90;69.40;;;;;;4967830;28;20872;-67
2022/06/09 07:50:51;;;;;;;27.30;25.60;;;18.20;68.80;;;;;;4959926;28;20567;-67
2022/06/09 07:53:19;;;;;;;27.67;26.00;;;18.30;67.70;;;;;;4969503;28;20545;-67
2022/06/09 07:55:46;;;;;;;26.30;24.77;;;18.50;67.30;;;;;;4965853;28;20475;-67
2022/06/09 07:58:16;;;;;;;26.73;24.93;;;18.70;67.40;;;;;;4970467;28;20458;-67
2022/06/09 08:00:43;;;;;;;28.40;26.60;;;18.80;66.20;;;;;;4970254;28;21051;-67
2022/06/09 08:03:15;;;;;;;27.63;25.70;;;18.90;66.50;;;;;;4964992;28;20837;-67
2022/06/09 08:05:42;;;;;;;28.43;26.47;;;19.00;66.20;;;;;;4965577;28;20483;-67
2022/06/09 08:08:09;;;;;;;26.43;24.93;;;18.90;65.70;;;;;;4969081;28;20542;-67
2022/06/09 08:10:37;;;;;;;28.13;26.10;;;18.50;66.20;;;;;;4967862;28;20543;-67
2022/06/09 08:13:04;;;;;;;27.20;24.93;;;18.50;67.00;;;;;;4969256;28;21006;-67
2022/06/09 08:15:34;;;;;;;26.37;24.63;;;18.40;66.60;;;;;;4971345;28;20935;-67
2022/06/09 08:18:01;;;;;;;29.00;27.30;;;18.40;66.80;;;;;;4961047;28;20549;-69
2022/06/09 08:20:31;;;;;;;26.60;24.80;;;18.50;66.80;;;;;;4958565;28;20486;-70
2022/06/09 08:23:04;;;;;;;26.63;25.00;;;18.60;64.70;;;;;;4962160;28;20482;-69
2022/06/09 08:25:31;;;;;;;27.70;25.73;;;18.90;64.10;;;;;;4958828;28;20555;-70
2022/06/09 08:27:58;;;;;;;27.47;25.67;;;18.90;64.00;;;;;;4957960;28;20567;-70
2022/06/09 08:30:26;;;;;;;26.67;25.00;;;19.10;64.30;;;;;;4964590;28;20566;-70
2022/06/09 08:32:54;;;;;;;29.33;27.10;;;19.20;63.60;;;;;;4959729;28;20460;-69
2022/06/09 08:35:21;;;;;;;29.53;27.37;;;19.20;63.20;;;;;;4960952;28;20953;-69
2022/06/09 08:37:51;;;;;;;27.37;25.67;;;19.20;63.70;;;;;;4958048;28;20554;-69
2022/06/09 08:40:21;;;;;;;28.20;26.50;;;19.10;62.70;;;;;;4967248;28;20471;-69
2022/06/09 08:43:02;;;;;;;27.00;25.10;;;18.80;64.70;;;;;;4956477;28;20569;-70
2022/06/09 08:45:35;;;;;;;28.37;26.47;;;18.80;64.80;;;;;;4965104;28;20495;-69
2022/06/09 08:48:06;;;;;;;28.23;26.40;;;19.00;64.10;;;;;;4970862;28;20542;-70
2022/06/09 08:50:36;;;;;;;27.30;25.60;;;19.20;64.10;;;;;;4968498;28;20545;-71
2022/06/09 08:53:10;;;;;;;27.17;25.37;;;19.10;64.60;;;;;;4968978;28;20638;-67
2022/06/09 08:55:41;;;;;;;26.87;25.17;;;18.50;65.30;;;;;;4964467;28;20888;-67
2022/06/09 08:58:16;;;;;;;26.20;24.60;;;18.40;64.30;;;;;;4970810;28;20455;-67
2022/06/09 09:00:46;;;;;;;26.53;24.60;;;18.40;64.90;;;;;;4967138;28;20529;-67
2022/06/09 09:03:29;;;;;;;28.40;26.50;;;18.60;64.90;;;;;;4963337;28;20983;-67
2022/06/09 09:06:04;;;;;;;26.43;24.73;;;19.00;64.70;;;;;;4964950;28;20479;-68
2022/06/09 09:08:31;;;;;;;25.40;24.00;;;19.30;63.80;;;;;;4968828;28;20458;-67
2022/06/09 09:11:23;;;;;;;26.10;24.60;;;19.60;63.80;;;;;;4968795;28;20492;-67
2022/06/09 09:13:59;;;;;;;26.30;24.80;;;19.90;61.70;;;;;;4958689;28;20566;-67
2022/06/09 09:16:32;;;;;;;28.23;26.23;;;19.60;60.50;;;;;;4961039;28;20476;-67
2022/06/09 09:19:13;;;;;;;27.33;25.43;;;19.30;61.60;;;;;;4959789;28;20541;-67
2022/06/09 09:21:51;;;;;;;27.00;25.23;;;19.00;63.10;;;;;;4969630;28;20550;-67
2022/06/09 09:24:34;;;;;;;25.77;24.17;;;19.00;62.90;;;;;;4961306;28;20486;-67
2022/06/09 09:27:15;;;;;;;25.50;24.00;;;18.80;63.60;;;;;;4958485;28;21103;-68
2022/06/09 09:29:50;;;;;;;27.43;25.63;;;18.80;63.70;;;;;;4960907;28;20462;-69
2022/06/09 09:32:20;;;;;;;28.00;26.20;;;18.80;64.10;;;;;;4957752;28;20558;-70
2022/06/09 09:34:50;;;;;;;26.10;24.50;;;19.00;63.10;;;;;;4969095;28;20566;-70
2022/06/09 09:37:23;;;;;;;27.67;25.87;;;19.50;62.60;;;;;;4954671;28;20476;-69
2022/06/09 09:39:57;;;;;;;27.73;26.03;;;19.80;61.40;;;;;;4962425;28;20486;-67
2022/06/09 09:42:29;;;;;;;26.23;24.50;;;20.00;60.50;;;;;;4957130;28;20530;-70
2022/06/09 09:45:04;;;;;;;27.03;25.33;;;20.00;60.60;;;;;;4964915;28;20586;-68
2022/06/09 09:47:33;;;;;;;27.10;25.50;;;20.20;60.70;;;;;;4967713;28;20545;-67
2022/06/09 09:50:07;;;;;;;27.23;25.20;;;19.90;62.70;;;;;;4966206;28;20542;-67
2022/06/09 09:52:40;;;;;;;26.00;24.30;;;19.20;64.30;;;;;;4968047;28;20899;-67
2022/06/09 09:55:29;;;;;;;26.93;25.13;;;19.10;64.20;;;;;;4967472;28;20467;-68
2022/06/09 09:58:15;;;;;;;26.00;24.50;;;19.40;64.30;;;;;;4963970;28;20550;-67
2022/06/09 10:00:42;;;;;;;26.20;24.70;;;19.40;63.20;;;;;;4970325;28;20565;-67
2022/06/09 10:08:53;;;;;;;26.60;25.13;;;20.00;61.60;;;;;;4969638;28;20549;-67
2022/06/09 10:14:43;;;;;;;25.90;24.40;;;20.10;59.20;;;;;;4966553;28;20462;-67
2022/06/09 10:17:29;;;;;;;26.80;25.20;;;20.20;60.00;;;;;;4975032;28;20490;-67
2022/06/09 10:20:04;;;;;;;28.87;27.07;;;20.50;59.30;;;;;;4969117;28;20547;-67
2022/06/09 10:22:35;;;;;;;27.60;25.60;;;20.80;59.30;;;;;;4964725;28;20543;-67
2022/06/09 10:25:15;;;;;;;28.10;26.50;;;20.70;58.80;;;;;;4965908;28;20466;-67
2022/06/09 10:27:44;;;;;;;26.10;24.50;;;20.30;59.00;;;;;;4961533;28;21075;-68
2022/06/09 10:30:17;;;;;;;26.83;25.13;;;20.10;60.20;;;;;;4964763;28;21290;-68
2022/06/09 10:32:51;;;;;;;25.70;24.13;;;20.00;60.90;;;;;;4967061;28;20562;-71
2022/06/09 10:35:27;;;;;;;25.80;24.27;;;20.10;60.00;;;;;;4968051;28;21012;-70
2022/06/09 10:38:02;;;;;;;26.37;24.77;;;20.40;59.70;;;;;;4969913;28;20471;-70
2022/06/09 10:40:37;;;;;;;26.70;24.90;;;20.70;59.30;;;;;;4967062;28;20463;-70
2022/06/09 10:43:12;;;;;;;27.43;25.73;;;20.80;59.00;;;;;;4963775;28;20489;-71
2022/06/09 10:45:45;;;;;;;25.97;24.37;;;20.60;59.00;;;;;;4969434;28;20582;-68
2022/06/09 10:56:55;;;;;;;25.83;24.33;;;19.70;60.40;;;;;;4973834;28;20514;-68
2022/06/09 10:59:30;;;;;;;29.73;28.13;;;19.70;58.40;;;;;;4969884;28;21024;-70
2022/06/09 11:01:57;;;;;;;25.67;24.07;;;19.50;58.10;;;;;;4973219;28;20468;-70
2022/06/09 11:04:25;;;;;;;25.40;23.90;;;19.70;58.00;;;;;;4969491;28;20541;-70
2022/06/09 11:07:10;;;;;;;25.57;24.10;;;19.60;58.80;;;;;;4973334;28;20512;-68
2022/06/09 11:09:52;;;;;;;26.60;24.93;;;19.60;60.80;;;;;;4971127;28;20538;-70
2022/06/09 11:12:27;;;;;;;24.70;23.20;;;19.50;62.60;;;;;;4959775;28;21409;-67
2022/06/09 11:15:17;;;;;;;26.20;24.33;;;19.40;63.20;;;;;;4971647;28;20460;-69
2022/06/09 11:18:08;;;;;;;26.70;25.10;;;19.40;61.60;;;;;;4973283;28;20979;-68
2022/06/09 11:20:48;;;;;;;25.37;24.07;;;19.40;60.80;;;;;;4971482;28;20496;-69
2022/06/09 11:23:27;;;;;;;28.77;26.23;;;19.40;60.70;;;;;;4971861;28;21139;-69
2022/06/09 11:26:06;;;;;;;25.70;24.10;;;19.50;60.70;;;;;;4968849;28;20479;-70
2022/06/09 11:28:47;;;;;;;26.10;24.37;;;19.70;60.80;;;;;;4969776;28;20543;-69
2022/06/09 11:31:43;;;;;;;28.00;26.00;;;19.80;60.90;;;;;;4971501;28;20542;-69
2022/06/09 11:34:47;;;;;;;25.93;24.33;;;19.40;62.70;;;;;;4968009;28;20542;-74
2022/06/09 11:37:31;;;;;;;25.77;24.10;;;19.50;62.30;;;;;;4959686;28;20471;-71
2022/06/09 11:40:06;;;;;;;25.83;23.90;;;19.50;62.40;;;;;;4966279;28;20541;-68
2022/06/09 11:42:50;;;;;;;25.20;23.73;;;19.60;62.70;;;;;;4966062;28;20547;-68
2022/06/09 11:45:25;;;;;;;25.90;24.00;;;19.80;61.30;;;;;;4969427;28;20534;-68
2022/06/09 11:47:55;;;;;;;30.03;27.83;;;19.90;61.30;;;;;;4964749;28;20467;-68
2022/06/09 11:50:27;;;;;;;26.30;24.70;;;19.90;61.90;;;;;;4968560;28;20547;-68
2022/06/09 11:52:58;;;;;;;27.90;26.03;;;19.40;63.50;;;;;;4969862;28;21193;-68
2022/06/09 11:55:57;;;;;;;27.43;25.70;;;19.20;63.90;;;;;;4967191;28;20548;-69
2022/06/09 11:58:47;;;;;;;27.03;25.23;;;19.20;64.60;;;;;;4968420;28;20488;-68
2022/06/09 12:01:58;;;;;;;30.23;28.47;;;19.40;64.60;;;;;;4963667;28;20460;-68
2022/06/09 12:04:49;;;;;;;27.93;26.20;;;19.60;63.00;;;;;;4957736;28;20993;-68
2022/06/09 12:07:27;;;;;;;27.30;25.57;;;19.50;61.60;;;;;;4970001;28;21084;-68
2022/06/09 12:10:05;;;;;;;25.97;24.47;;;19.70;61.40;;;;;;4966589;28;20467;-69
2022/06/09 12:12:35;;;;;;;25.63;24.03;;;19.90;61.00;;;;;;4965822;28;20464;-68
2022/06/09 12:15:28;;;;;;;26.80;25.20;;;20.20;59.10;;;;;;4968055;28;20462;-68
2022/06/09 12:18:05;;;;;;;26.40;24.80;;;20.30;58.10;;;;;;4978400;28;20864;-68
2022/06/09 12:20:40;;;;;;;25.57;24.10;;;19.90;59.00;;;;;;4968540;28;20518;-68
2022/06/09 12:23:30;;;;;;;26.57;24.73;;;20.00;58.50;;;;;;4966597;28;20500;-68
2022/06/09 12:26:21;;;;;;;25.87;24.17;;;20.20;59.10;;;;;;4961700;28;20487;-68
2022/06/09 12:29:16;;;;;;;26.57;24.77;;;20.40;59.50;;;;;;4965791;28;20551;-68
2022/06/09 12:32:31;;;;;;;25.97;24.37;;;20.50;58.80;;;;;;4973648;28;20545;-68
2022/06/09 12:35:00;;;;;;;25.50;23.80;;;20.40;57.90;;;;;;4965812;28;20909;-68
2022/06/09 12:37:29;;;;;;;25.13;23.73;;;20.60;56.80;;;;;;4971674;28;20877;-70
2022/06/09 12:40:01;;;;;;;26.20;24.63;;;20.40;54.70;;;;;;4969492;28;20542;-70
2022/06/09 12:42:38;;;;;;;25.03;23.63;;;20.70;55.00;;;;;;4968224;28;20551;-70
2022/06/09 12:45:07;;;;;;;26.03;24.40;;;20.80;50.80;;;;;;4974711;28;20577;-71
2022/06/09 12:47:35;;;;;;;26.23;24.53;;;20.90;53.00;;;;;;4976842;28;20603;-70
2022/06/09 12:50:24;;;;;;;25.40;23.80;;;21.00;53.40;;;;;;4967126;28;21003;-70
2022/06/09 12:52:54;;;;;;;27.27;25.30;;;20.70;54.30;;;;;;4969738;28;20568;-70
2022/06/09 12:55:28;;;;;;;26.40;24.60;;;20.50;54.90;;;;;;4965885;28;20586;-70
2022/06/09 12:57:59;;;;;;;27.87;25.97;;;20.50;55.70;;;;;;4968893;28;20464;-68
2022/06/09 13:00:30;;;;;;;26.57;24.67;;;20.80;55.80;;;;;;4969178;28;20468;-68
2022/06/09 13:02:57;;;;;;;27.60;25.80;;;20.80;55.20;;;;;;4969087;28;21053;-68
2022/06/09 13:05:28;;;;;;;26.33;24.63;;;20.80;55.30;;;;;;4978058;28;20557;-68
2022/06/09 13:07:59;;;;;;;29.60;27.80;;;20.70;55.60;;;;;;4966044;28;20582;-68
2022/06/09 13:10:29;;;;;;;26.50;24.90;;;20.40;57.20;;;;;;4965501;28;20534;-68
2022/06/09 13:13:07;;;;;;;26.80;24.57;;;20.30;57.70;;;;;;4966093;28;20473;-68